createdAt,value
2019-03-13T00:00:25.498Z,5.50
2019-03-13T00:02:54.042Z,5.60
2019-03-13T00:05:22.495Z,5.60
2019-03-13T00:07:50.972Z,5.50
2019-03-13T00:10:19.489Z,5.40
2019-03-13T00:12:47.942Z,5.40
2019-03-13T00:15:16.635Z,5.30
2019-03-13T00:17:45.081Z,5.30
2019-03-13T00:20:13.885Z,5.20
2019-03-13T00:22:42.347Z,5.30
2019-03-13T00:25:11.155Z,5.30
2019-03-13T00:27:39.616Z,5.30
2019-03-13T00:30:10.129Z,5.20
2019-03-13T00:32:38.575Z,5.20
2019-03-13T00:35:08.769Z,5.20
2019-03-13T00:37:37.213Z,5.20
2019-03-13T00:40:08.747Z,5.20
2019-03-13T00:42:37.207Z,5.10
2019-03-13T00:45:08.506Z,5.10
2019-03-13T00:47:36.962Z,5.00
2019-03-13T00:50:08.293Z,5.00
2019-03-13T00:52:36.754Z,4.90
2019-03-13T00:55:06.243Z,4.80
2019-03-13T00:57:34.693Z,4.80
2019-03-13T01:00:04.069Z,4.80
2019-03-13T01:02:42.935Z,4.70
2019-03-13T01:05:13.089Z,4.80
2019-03-13T01:07:41.548Z,4.80
2019-03-13T01:10:10.123Z,4.70
2019-03-13T01:12:38.618Z,4.60
2019-03-13T01:15:08.995Z,4.60
2019-03-13T01:17:39.033Z,4.70
2019-03-13T01:20:09.127Z,4.60
2019-03-13T01:22:37.600Z,4.80
2019-03-13T01:25:08.492Z,4.80
2019-03-13T01:27:36.963Z,4.80
2019-03-13T01:30:08.594Z,4.90
2019-03-13T01:32:41.665Z,4.90
2019-03-13T01:35:14.313Z,5.00
2019-03-13T01:37:42.835Z,5.00
2019-03-13T01:40:11.827Z,5.00
2019-03-13T01:42:40.284Z,5.00
2019-03-13T01:45:10.195Z,5.00
2019-03-13T01:47:38.773Z,5.00
2019-03-13T01:50:09.872Z,5.00
2019-03-13T01:52:38.343Z,5.00
2019-03-13T01:55:08.541Z,5.00
2019-03-13T01:57:36.989Z,5.00
2019-03-13T02:00:08.527Z,5.00
2019-03-13T02:02:37.048Z,5.00
2019-03-13T02:05:05.953Z,5.00
2019-03-13T02:07:34.410Z,5.00
2019-03-13T02:10:03.021Z,5.00
2019-03-13T02:12:31.467Z,5.00
2019-03-13T02:14:59.918Z,5.00
2019-03-13T02:17:29.269Z,5.00
2019-03-13T02:19:57.726Z,5.00
2019-03-13T02:22:26.180Z,5.00
2019-03-13T02:24:54.660Z,5.00
2019-03-13T02:27:23.118Z,5.10
2019-03-13T02:29:51.581Z,5.00
2019-03-13T02:32:20.041Z,5.10
2019-03-13T02:34:48.513Z,5.10
2019-03-13T02:37:17.009Z,5.10
2019-03-13T02:39:45.505Z,5.00
2019-03-13T02:42:13.960Z,4.90
2019-03-13T02:44:42.420Z,4.80
2019-03-13T02:47:10.901Z,4.80
2019-03-13T02:49:39.365Z,4.80
2019-03-13T02:52:07.843Z,4.80
2019-03-13T02:54:36.297Z,4.70
2019-03-13T02:57:04.750Z,4.60
2019-03-13T02:59:33.219Z,4.60
2019-03-13T03:02:05.847Z,4.50
2019-03-13T03:04:34.386Z,4.50
2019-03-13T03:07:02.837Z,4.50
2019-03-13T03:09:31.309Z,4.40
2019-03-13T03:11:59.751Z,4.40
2019-03-13T03:14:28.222Z,4.40
2019-03-13T03:16:56.672Z,4.40
2019-03-13T03:19:25.198Z,4.40
2019-03-13T03:21:53.702Z,4.40
2019-03-13T03:24:22.242Z,4.40
2019-03-13T03:26:50.791Z,4.40
2019-03-13T03:29:19.357Z,4.40
2019-03-13T03:31:47.900Z,4.40
2019-03-13T03:34:16.522Z,4.60
2019-03-13T03:36:45.041Z,4.60
2019-03-13T03:39:13.489Z,4.70
2019-03-13T03:41:41.943Z,4.70
2019-03-13T03:44:10.485Z,4.70
2019-03-13T03:46:38.952Z,4.80
2019-03-13T03:49:07.406Z,4.80
2019-03-13T03:51:35.880Z,4.80
2019-03-13T03:54:04.727Z,4.80
2019-03-13T03:56:33.242Z,4.80
2019-03-13T03:59:01.723Z,4.90
2019-03-13T04:01:30.251Z,4.90
2019-03-13T04:04:01.519Z,4.90
2019-03-13T04:06:29.977Z,4.70
2019-03-13T04:08:58.437Z,4.70
2019-03-13T04:11:26.909Z,4.70
2019-03-13T04:13:55.444Z,4.70
2019-03-13T04:16:23.896Z,4.80
2019-03-13T04:18:52.356Z,4.80
2019-03-13T04:21:20.818Z,4.90
2019-03-13T04:23:49.283Z,4.90
2019-03-13T04:26:17.804Z,4.90
2019-03-13T04:28:46.323Z,5.00
2019-03-13T04:31:14.931Z,4.90
2019-03-13T04:33:48.764Z,4.90
2019-03-13T04:36:17.309Z,4.90
2019-03-13T04:38:45.785Z,4.90
2019-03-13T04:41:14.243Z,4.80
2019-03-13T04:43:46.829Z,4.90
2019-03-13T04:46:15.388Z,4.90
2019-03-13T04:48:43.835Z,5.00
2019-03-13T04:51:12.291Z,4.90
2019-03-13T04:53:40.777Z,5.10
2019-03-13T04:56:09.332Z,5.10
2019-03-13T04:58:37.839Z,5.10
2019-03-13T05:01:06.333Z,5.10
2019-03-13T05:03:34.861Z,5.20
2019-03-13T05:06:04.403Z,5.10
2019-03-13T05:08:45.142Z,5.10
2019-03-13T05:11:06.179Z,5.20
2019-03-13T05:13:34.705Z,5.30
2019-03-13T05:16:03.173Z,5.30
2019-03-13T05:18:31.656Z,5.40
2019-03-13T05:21:00.183Z,5.40
2019-03-13T05:23:28.745Z,5.40
2019-03-13T05:25:57.217Z,5.40
2019-03-13T05:28:25.684Z,5.40
2019-03-13T05:30:54.160Z,5.50
2019-03-13T05:33:22.665Z,5.50
2019-03-13T05:35:51.126Z,5.40
2019-03-13T05:38:19.723Z,5.50
2019-03-13T05:40:48.207Z,5.60
2019-03-13T05:43:16.788Z,5.60
2019-03-13T05:45:47.021Z,5.60
2019-03-13T05:48:15.499Z,5.60
2019-03-13T05:50:43.961Z,5.60
2019-03-13T05:53:12.429Z,5.60
2019-03-13T05:55:40.973Z,5.60
2019-03-13T05:58:09.499Z,5.70
2019-03-13T06:00:38.019Z,5.70
2019-03-13T06:03:06.562Z,5.70
2019-03-13T06:05:35.042Z,5.70
2019-03-13T06:08:03.590Z,5.70
2019-03-13T06:10:32.466Z,5.70
2019-03-13T06:13:00.949Z,5.70
2019-03-13T06:15:29.490Z,5.80
2019-03-13T06:17:58.013Z,5.80
2019-03-13T06:20:26.558Z,5.80
2019-03-13T06:22:55.205Z,5.80
2019-03-13T06:25:23.740Z,5.80
2019-03-13T06:27:52.714Z,5.80
2019-03-13T06:30:21.624Z,5.80
2019-03-13T06:32:50.224Z,5.80
2019-03-13T06:35:18.778Z,5.90
2019-03-13T06:37:47.256Z,5.80
2019-03-13T06:40:20.844Z,5.80
2019-03-13T06:42:49.343Z,5.90
2019-03-13T06:45:18.054Z,5.90
2019-03-13T06:47:46.538Z,5.90
2019-03-13T06:50:25.554Z,5.90
2019-03-13T06:52:56.300Z,6.00
2019-03-13T06:55:24.892Z,6.00
2019-03-13T06:57:53.438Z,6.00
2019-03-13T07:00:42.024Z,6.00
2019-03-13T07:03:16.724Z,6.00
2019-03-13T07:06:06.828Z,6.10
2019-03-13T07:08:48.748Z,6.10
2019-03-13T07:11:21.444Z,6.10
2019-03-13T07:14:11.265Z,6.10
2019-03-13T07:16:41.570Z,6.10
2019-03-13T07:19:27.684Z,6.10
2019-03-13T07:22:00.263Z,6.10
2019-03-13T07:24:44.963Z,6.10
2019-03-13T07:27:32.578Z,6.20
2019-03-13T07:30:18.441Z,6.10
2019-03-13T07:33:06.431Z,6.20
2019-03-13T07:35:39.561Z,6.20
2019-03-13T07:38:16.046Z,6.20
2019-03-13T07:40:49.144Z,6.20
2019-03-13T07:43:22.028Z,6.30
2019-03-13T07:46:04.011Z,6.40
2019-03-13T07:48:36.838Z,6.50
2019-03-13T07:51:09.943Z,6.40
2019-03-13T07:53:40.312Z,6.60
2019-03-13T07:56:10.479Z,6.60
2019-03-13T07:58:49.749Z,6.60
2019-03-13T08:01:19.949Z,6.50
2019-03-13T08:03:50.136Z,6.60
2019-03-13T08:06:27.175Z,6.50
2019-03-13T08:08:59.773Z,6.50
2019-03-13T08:11:35.809Z,6.50
2019-03-13T08:14:17.972Z,6.60
2019-03-13T08:17:04.181Z,6.60
2019-03-13T08:19:50.976Z,6.50
2019-03-13T08:22:32.645Z,6.50
2019-03-13T08:25:19.135Z,6.70
2019-03-13T08:28:08.707Z,6.80
2019-03-13T08:30:57.997Z,6.90
2019-03-13T08:33:47.723Z,6.80
2019-03-13T08:36:21.023Z,6.70
2019-03-13T08:39:01.179Z,6.60
2019-03-13T08:41:38.439Z,6.60
2019-03-13T08:44:08.531Z,6.70
2019-03-13T08:46:38.697Z,6.80
2019-03-13T08:49:14.573Z,6.80
2019-03-13T08:51:48.011Z,6.80
2019-03-13T08:54:21.165Z,6.90
2019-03-13T08:56:54.315Z,7.00
2019-03-13T08:59:39.520Z,7.20
2019-03-13T09:02:25.581Z,7.20
2019-03-13T09:04:55.687Z,7.10
2019-03-13T09:07:25.787Z,7.30
2019-03-13T09:10:13.751Z,7.40
2019-03-13T09:12:43.911Z,7.50
2019-03-13T09:15:22.775Z,7.50
2019-03-13T09:17:52.875Z,7.50
2019-03-13T09:20:39.155Z,7.40
2019-03-13T09:23:21.228Z,7.40
2019-03-13T09:25:57.373Z,7.40
2019-03-13T09:28:27.476Z,7.50
2019-03-13T09:31:13.984Z,7.50
2019-03-13T09:34:00.071Z,7.60
2019-03-13T09:36:30.198Z,7.50
2019-03-13T09:39:03.177Z,7.70
2019-03-13T09:41:45.511Z,7.70
2019-03-13T09:44:27.635Z,8.00
2019-03-13T09:47:14.055Z,7.90
2019-03-13T09:49:56.135Z,8.00
2019-03-13T09:52:26.398Z,7.80
2019-03-13T09:55:12.277Z,7.80
2019-03-13T09:57:58.256Z,7.60
2019-03-13T10:00:44.525Z,7.50
2019-03-13T10:03:17.672Z,7.40
2019-03-13T10:05:50.771Z,7.30
2019-03-13T10:08:23.737Z,7.20
2019-03-13T10:11:02.480Z,7.20
2019-03-13T10:13:38.173Z,7.20
2019-03-13T10:16:08.298Z,7.10
2019-03-13T10:18:54.667Z,7.20
2019-03-13T10:21:30.674Z,7.20
2019-03-13T10:24:00.857Z,7.20
2019-03-13T10:26:33.695Z,7.20
2019-03-13T10:29:03.810Z,7.30
2019-03-13T10:31:46.833Z,7.30
2019-03-13T10:34:31.750Z,7.30
2019-03-13T10:37:04.894Z,7.30
2019-03-13T10:39:43.743Z,7.30
2019-03-13T10:42:25.995Z,7.40
2019-03-13T10:45:04.830Z,7.50
2019-03-13T10:47:43.678Z,7.50
2019-03-13T10:50:14.620Z,7.70
2019-03-13T10:52:47.446Z,7.80
2019-03-13T10:55:26.522Z,8.00
2019-03-13T10:58:02.272Z,8.40
2019-03-13T11:00:32.423Z,8.50
2019-03-13T11:03:02.584Z,8.40
2019-03-13T11:05:41.641Z,8.60
2019-03-13T11:49:06.062Z,8.20
2019-03-13T11:51:44.906Z,8.20
2019-03-13T11:54:17.960Z,8.10
2019-03-13T11:56:59.836Z,8.10
2019-03-13T11:59:48.147Z,7.90
2019-03-13T12:02:18.249Z,7.70
2019-03-13T12:04:48.414Z,7.70
2019-03-13T12:07:21.213Z,7.60
2019-03-13T12:10:00.374Z,7.50
2019-03-13T12:12:33.610Z,7.70
2019-03-13T12:15:03.720Z,7.70
2019-03-13T12:17:38.387Z,7.60
2019-03-13T12:20:12.542Z,7.50
2019-03-13T12:22:51.416Z,7.50
2019-03-13T12:25:24.225Z,7.40
2019-03-13T12:27:59.992Z,7.50
2019-03-13T12:30:47.551Z,7.50
2019-03-13T12:33:17.711Z,7.50
2019-03-13T12:35:50.624Z,7.50
2019-03-13T12:38:37.501Z,7.50
2019-03-13T12:41:19.438Z,7.30
2019-03-13T12:43:51.443Z,7.40
2019-03-13T12:46:36.258Z,7.40
2019-03-13T12:49:15.775Z,7.40
2019-03-13T12:51:54.594Z,7.40
2019-03-13T12:54:24.723Z,7.40
2019-03-13T12:56:54.960Z,7.40
2019-03-13T12:59:25.221Z,7.40
2019-03-13T13:02:01.141Z,7.30
2019-03-13T13:04:46.981Z,7.40
2019-03-13T13:07:17.224Z,7.50
2019-03-13T13:10:03.049Z,7.40
2019-03-13T13:12:36.224Z,7.50
2019-03-13T13:15:09.388Z,7.40
2019-03-13T13:17:51.399Z,7.50
2019-03-13T13:20:19.988Z,7.50
2019-03-13T13:22:55.557Z,7.60
2019-03-13T13:25:24.191Z,7.60
2019-03-13T13:27:52.819Z,7.50
2019-03-13T13:30:21.515Z,7.50
2019-03-13T13:32:50.083Z,7.50
2019-03-13T13:35:18.614Z,7.50
2019-03-13T13:37:47.224Z,7.50
2019-03-13T13:40:17.387Z,7.40
2019-03-13T13:42:47.713Z,7.60
2019-03-13T13:45:34.247Z,7.70
2019-03-13T13:48:04.337Z,7.60
2019-03-13T13:50:32.953Z,7.60
2019-03-13T13:53:01.641Z,7.50
2019-03-13T13:55:30.245Z,7.50
2019-03-13T13:57:58.829Z,7.40
2019-03-13T14:00:27.344Z,7.30
2019-03-13T14:02:57.509Z,7.30
2019-03-13T14:05:25.965Z,7.20
2019-03-13T14:07:54.427Z,7.10
2019-03-13T14:10:22.965Z,6.90
2019-03-13T14:12:51.619Z,6.90
2019-03-13T14:15:20.120Z,6.90
2019-03-13T14:17:48.580Z,6.80
2019-03-13T14:20:17.115Z,6.80
2019-03-13T14:22:45.679Z,6.80
2019-03-13T14:25:14.809Z,6.70
2019-03-13T14:27:43.345Z,6.70
2019-03-13T14:30:22.339Z,6.60
2019-03-13T14:32:50.992Z,6.60
2019-03-13T14:35:19.738Z,6.50
2019-03-13T14:37:48.236Z,6.50
2019-03-13T14:40:20.309Z,6.50
2019-03-13T14:45:29.051Z,6.20
2019-03-13T14:51:25.385Z,6.20
2019-03-13T14:53:53.846Z,6.10
2019-03-13T14:56:22.338Z,6.10
2019-03-13T14:58:50.809Z,6.10
2019-03-13T15:01:19.337Z,6.10
2019-03-13T15:03:47.813Z,6.10
2019-03-13T15:06:20.767Z,6.20
2019-03-13T15:12:55.546Z,6.10
2019-03-13T15:19:03.892Z,6.30
2019-03-13T15:21:32.356Z,6.20
2019-03-13T15:24:00.809Z,6.30
2019-03-13T15:26:29.274Z,6.30
2019-03-13T15:28:57.754Z,6.30
2019-03-13T15:31:26.377Z,6.30
2019-03-13T15:40:02.805Z,6.30
2019-03-13T15:42:31.305Z,6.40
2019-03-13T15:44:59.826Z,6.50
2019-03-13T15:47:28.294Z,6.50
2019-03-13T15:49:56.772Z,6.50
2019-03-13T15:52:25.244Z,6.50
2019-03-13T15:54:53.792Z,6.50
2019-03-13T15:57:22.284Z,6.50
2019-03-13T15:59:50.794Z,6.50
2019-03-13T16:02:19.350Z,6.40
2019-03-13T16:04:47.912Z,6.30
2019-03-13T16:07:16.435Z,6.30
2019-03-13T16:09:46.743Z,6.40
2019-03-13T16:12:15.266Z,6.40
2019-03-13T16:17:59.600Z,6.30
2019-03-13T16:20:28.127Z,6.30
2019-03-13T16:23:02.092Z,6.30
2019-03-13T16:25:30.776Z,6.30
2019-03-13T16:27:59.770Z,6.20
2019-03-13T16:30:36.850Z,6.20
2019-03-13T16:33:05.388Z,6.10
2019-03-13T16:35:36.601Z,6.10
2019-03-13T16:38:05.265Z,6.10
2019-03-13T16:40:33.843Z,6.00
2019-03-13T16:43:02.391Z,6.00
2019-03-13T16:48:28.661Z,5.90
2019-03-13T16:50:57.149Z,5.90
2019-03-13T16:53:25.650Z,5.80
2019-03-13T16:58:43.512Z,5.80
2019-03-13T17:02:15.945Z,5.80
2019-03-13T17:04:44.405Z,5.80
2019-03-13T17:07:12.889Z,5.80
2019-03-13T17:09:41.355Z,5.80
2019-03-13T17:12:09.990Z,5.80
2019-03-13T17:14:38.477Z,5.70
2019-03-13T17:17:07.101Z,5.80
2019-03-13T17:19:35.581Z,5.80
2019-03-13T17:22:04.178Z,5.70
2019-03-13T17:24:32.656Z,5.80
2019-03-13T17:27:01.373Z,5.70
2019-03-13T17:29:30.091Z,5.70
2019-03-13T17:31:58.647Z,5.70
2019-03-13T17:34:30.123Z,5.70
2019-03-13T17:36:57.443Z,5.80
2019-03-13T17:39:26.068Z,5.70
2019-03-13T17:41:54.645Z,5.80
2019-03-13T17:44:23.261Z,5.70
2019-03-13T17:46:51.734Z,5.70
2019-03-13T17:49:20.454Z,5.70
2019-03-13T17:52:14.683Z,5.60
2019-03-13T17:54:46.527Z,5.70
2019-03-13T17:57:14.993Z,5.70
2019-03-13T17:59:43.479Z,5.70
2019-03-13T18:02:14.000Z,5.70
2019-03-13T18:04:45.541Z,5.70
2019-03-13T18:07:14.049Z,5.80
2019-03-13T18:09:42.526Z,5.80
2019-03-13T18:12:10.988Z,5.80
2019-03-13T18:25:18.324Z,5.60
2019-03-13T18:27:47.351Z,5.60
2019-03-13T18:30:26.943Z,5.60
2019-03-13T18:32:55.693Z,5.60
2019-03-13T18:35:25.989Z,5.50
2019-03-13T18:37:56.395Z,5.50
2019-03-13T18:40:25.564Z,5.50
2019-03-13T18:49:04.211Z,5.50
2019-03-13T18:51:32.692Z,5.50
2019-03-13T18:54:01.202Z,5.50
2019-03-13T18:56:29.688Z,5.50
2019-03-13T18:58:58.260Z,5.50
2019-03-13T19:01:29.757Z,5.50
2019-03-13T19:03:58.314Z,5.50
2019-03-13T19:06:26.863Z,5.50
2019-03-13T19:09:02.337Z,5.50
2019-03-13T19:30:13.448Z,5.70
2019-03-13T19:32:42.442Z,5.80
2019-03-13T19:35:16.689Z,5.90
2019-03-13T19:37:45.531Z,5.90
2019-03-13T19:40:38.744Z,5.90
2019-03-13T19:42:55.186Z,5.90
2019-03-13T19:45:42.443Z,6.00
2019-03-13T19:48:17.433Z,6.00
2019-03-13T19:50:46.087Z,6.00
2019-03-13T19:53:15.279Z,6.00
2019-03-13T19:58:31.922Z,6.10
2019-03-13T20:01:10.025Z,6.10
2019-03-13T20:03:38.512Z,6.10
2019-03-13T20:08:48.122Z,6.10
2019-03-13T20:11:16.649Z,6.00
2019-03-13T20:13:46.934Z,6.00
2019-03-13T20:16:15.422Z,6.10
2019-03-13T20:18:44.183Z,6.00
2019-03-13T20:21:16.134Z,6.10
2019-03-13T20:23:44.650Z,6.10
2019-03-13T20:26:13.185Z,6.10
2019-03-13T20:28:41.876Z,6.10
2019-03-13T20:31:10.430Z,6.10
2019-03-13T20:33:39.009Z,6.10
2019-03-13T20:36:07.768Z,6.10
2019-03-13T20:38:36.362Z,6.10
2019-03-13T20:41:04.870Z,6.10
2019-03-13T20:43:33.348Z,6.10
2019-03-13T20:46:01.896Z,6.10
2019-03-13T20:48:30.682Z,6.10
2019-03-13T20:53:52.840Z,6.10
2019-03-13T20:56:21.413Z,6.10
2019-03-13T20:58:49.864Z,6.00
2019-03-13T21:01:18.499Z,6.00
2019-03-13T21:03:47.045Z,6.10
2019-03-13T21:06:20.613Z,6.10
2019-03-13T21:09:25.649Z,6.00
2019-03-13T21:17:55.825Z,5.90
2019-03-13T21:20:24.705Z,5.90
2019-03-13T21:22:53.268Z,5.90
2019-03-13T21:25:23.875Z,5.90
2019-03-13T21:27:52.433Z,5.90
2019-03-13T21:30:28.389Z,5.90
2019-03-13T21:32:57.544Z,5.90
2019-03-13T21:35:37.038Z,5.90
2019-03-13T21:38:05.569Z,5.90
2019-03-13T21:40:34.044Z,5.80
2019-03-13T21:43:04.150Z,5.80
2019-03-13T21:45:40.949Z,5.80
2019-03-13T21:48:03.448Z,5.80
2019-03-13T21:50:32.123Z,5.80
2019-03-13T21:53:05.428Z,5.80
2019-03-13T21:58:21.647Z,5.80
2019-03-13T22:00:50.191Z,5.90
2019-03-13T22:03:27.993Z,5.80
2019-03-13T22:05:50.954Z,5.80
2019-03-13T22:08:19.164Z,5.80
2019-03-13T22:10:47.628Z,5.80
2019-03-13T22:13:16.122Z,5.80
2019-03-13T22:15:44.598Z,5.80
2019-03-13T22:18:13.437Z,5.70
2019-03-13T22:20:41.911Z,5.70
2019-03-13T22:23:10.566Z,5.70
2019-03-13T22:25:39.125Z,5.70
2019-03-13T22:28:07.651Z,5.60
2019-03-13T22:30:36.215Z,5.60
2019-03-13T22:33:04.849Z,5.60
2019-03-13T22:35:33.575Z,5.70
2019-03-13T22:38:02.228Z,5.70
2019-03-13T22:40:30.698Z,5.70
2019-03-13T22:42:59.262Z,5.70
2019-03-13T22:45:27.886Z,5.60
2019-03-13T22:47:56.582Z,5.60
2019-03-13T22:50:25.587Z,5.60
2019-03-13T22:52:54.188Z,5.70
2019-03-13T22:55:22.842Z,5.70
2019-03-13T22:57:51.307Z,5.70
2019-03-13T23:00:30.074Z,5.70
2019-03-13T23:03:12.093Z,5.70
2019-03-13T23:05:40.645Z,5.70
2019-03-13T23:08:09.170Z,5.80
2019-03-13T23:13:36.071Z,5.70
2019-03-13T23:16:04.706Z,5.70
2019-03-13T23:18:33.162Z,5.60
2019-03-13T23:21:01.719Z,5.60
2019-03-13T23:23:45.092Z,5.60
2019-03-13T23:26:13.590Z,5.60
2019-03-13T23:31:28.452Z,5.60
2019-03-13T23:33:57.098Z,5.50
2019-03-13T23:36:25.589Z,5.50
2019-03-13T23:38:54.154Z,5.50
2019-03-13T23:41:22.690Z,5.60
2019-03-13T23:43:55.917Z,5.60
2019-03-13T23:46:24.530Z,5.50
2019-03-13T23:48:53.205Z,5.50
2019-03-13T23:51:21.738Z,5.40
2019-03-13T23:53:50.270Z,5.50
2019-03-13T23:56:18.754Z,5.50
2019-03-13T23:58:47.204Z,5.50
